sensor_id;sensor_type;location;lat;lon;timestamp;P1;durP1;ratioP1;P2;durP2;ratioP2
15958;SDS011;8078;47.822;9.402;2022-11-11T00:02:01;2.90;;;2.57;;
15958;SDS011;8078;47.822;9.402;2022-11-11T00:04:26;4.00;;;2.93;;
15958;SDS011;8078;47.822;9.402;2022-11-11T00:06:52;4.03;;;2.70;;
15958;SDS011;8078;47.822;9.402;2022-11-11T00:09:18;4.07;;;3.00;;
15958;SDS011;8078;47.822;9.402;2022-11-11T00:11:43;3.73;;;2.97;;
15958;SDS011;8078;47.822;9.402;2022-11-11T00:14:09;3.37;;;2.90;;
15958;SDS011;8078;47.822;9.402;2022-11-11T00:16:35;5.87;;;3.27;;
15958;SDS011;8078;47.822;9.402;2022-11-11T00:19:19;4.47;;;3.23;;
15958;SDS011;8078;47.822;9.402;2022-11-11T00:22:03;4.93;;;3.60;;
15958;SDS011;8078;47.822;9.402;2022-11-11T00:24:47;8.23;;;3.80;;
15958;SDS011;8078;47.822;9.402;2022-11-11T00:27:31;4.07;;;3.13;;
15958;SDS011;8078;47.822;9.402;2022-11-11T00:29:57;4.70;;;3.80;;
15958;SDS011;8078;47.822;9.402;2022-11-11T00:32:23;5.53;;;3.70;;
15958;SDS011;8078;47.822;9.402;2022-11-11T00:34:52;4.10;;;3.70;;
15958;SDS011;8078;47.822;9.402;2022-11-11T00:37:38;6.20;;;3.50;;
15958;SDS011;8078;47.822;9.402;2022-11-11T00:40:06;3.10;;;2.80;;
15958;SDS011;8078;47.822;9.402;2022-11-11T00:42:32;5.90;;;3.00;;
15958;SDS011;8078;47.822;9.402;2022-11-11T00:44:58;4.23;;;2.90;;
15958;SDS011;8078;47.822;9.402;2022-11-11T00:47:23;3.90;;;2.87;;
15958;SDS011;8078;47.822;9.402;2022-11-11T00:50:11;8.07;;;3.10;;
15958;SDS011;8078;47.822;9.402;2022-11-11T00:52:57;4.77;;;2.77;;
15958;SDS011;8078;47.822;9.402;2022-11-11T00:55:23;4.33;;;2.87;;
15958;SDS011;8078;47.822;9.402;2022-11-11T00:57:48;4.20;;;3.00;;
15958;SDS011;8078;47.822;9.402;2022-11-11T01:00:14;3.73;;;2.80;;
15958;SDS011;8078;47.822;9.402;2022-11-11T01:02:40;2.90;;;2.60;;
15958;SDS011;8078;47.822;9.402;2022-11-11T01:05:05;5.30;;;3.27;;
15958;SDS011;8078;47.822;9.402;2022-11-11T01:07:31;3.20;;;2.87;;
15958;SDS011;8078;47.822;9.402;2022-11-11T01:09:57;2.87;;;2.57;;
15958;SDS011;8078;47.822;9.402;2022-11-11T01:12:22;5.10;;;2.93;;
15958;SDS011;8078;47.822;9.402;2022-11-11T01:14:48;3.70;;;3.23;;
15958;SDS011;8078;47.822;9.402;2022-11-11T01:17:14;3.07;;;2.77;;
15958;SDS011;8078;47.822;9.402;2022-11-11T01:19:39;3.20;;;2.90;;
15958;SDS011;8078;47.822;9.402;2022-11-11T01:22:05;4.53;;;2.90;;
15958;SDS011;8078;47.822;9.402;2022-11-11T01:24:30;3.13;;;2.83;;
15958;SDS011;8078;47.822;9.402;2022-11-11T01:26:56;6.03;;;3.23;;
15958;SDS011;8078;47.822;9.402;2022-11-11T01:29:21;3.10;;;2.70;;
15958;SDS011;8078;47.822;9.402;2022-11-11T01:31:47;5.07;;;2.83;;
15958;SDS011;8078;47.822;9.402;2022-11-11T01:34:12;5.17;;;2.90;;
15958;SDS011;8078;47.822;9.402;2022-11-11T01:36:38;3.23;;;2.80;;
15958;SDS011;8078;47.822;9.402;2022-11-11T01:39:03;5.07;;;3.10;;
15958;SDS011;8078;47.822;9.402;2022-11-11T01:41:30;5.07;;;2.93;;
15958;SDS011;8078;47.822;9.402;2022-11-11T01:43:58;3.10;;;2.80;;
15958;SDS011;8078;47.822;9.402;2022-11-11T01:49:27;5.07;;;2.67;;
15958;SDS011;8078;47.822;9.402;2022-11-11T01:54:49;2.30;;;2.10;;
15958;SDS011;8078;47.822;9.402;2022-11-11T01:57:27;2.93;;;2.10;;
15958;SDS011;8078;47.822;9.402;2022-11-11T02:00:00;3.43;;;2.30;;
15958;SDS011;8078;47.822;9.402;2022-11-11T02:05:13;3.07;;;2.40;;
15958;SDS011;8078;47.822;9.402;2022-11-11T02:08:00;2.93;;;2.30;;
15958;SDS011;8078;47.822;9.402;2022-11-11T02:10:30;4.87;;;3.20;;
15958;SDS011;8078;47.822;9.402;2022-11-11T02:12:57;2.73;;;2.30;;
15958;SDS011;8078;47.822;9.402;2022-11-11T02:15:41;3.80;;;2.60;;
15958;SDS011;8078;47.822;9.402;2022-11-11T02:18:08;3.40;;;2.30;;
15958;SDS011;8078;47.822;9.402;2022-11-11T02:20:34;2.43;;;2.10;;
15958;SDS011;8078;47.822;9.402;2022-11-11T02:23:45;2.00;;;1.83;;
15958;SDS011;8078;47.822;9.402;2022-11-11T02:26:02;3.30;;;2.37;;
15958;SDS011;8078;47.822;9.402;2022-11-11T02:28:29;3.67;;;2.40;;
15958;SDS011;8078;47.822;9.402;2022-11-11T02:30:57;5.77;;;2.77;;
15958;SDS011;8078;47.822;9.402;2022-11-11T02:33:22;4.27;;;2.63;;
15958;SDS011;8078;47.822;9.402;2022-11-11T02:35:49;3.57;;;2.43;;
15958;SDS011;8078;47.822;9.402;2022-11-11T02:38:23;3.57;;;2.37;;
15958;SDS011;8078;47.822;9.402;2022-11-11T02:40:49;3.47;;;2.73;;
15958;SDS011;8078;47.822;9.402;2022-11-11T02:43:34;3.00;;;2.33;;
15958;SDS011;8078;47.822;9.402;2022-11-11T02:46:01;3.10;;;2.80;;
15958;SDS011;8078;47.822;9.402;2022-11-11T02:48:28;3.50;;;2.90;;
15958;SDS011;8078;47.822;9.402;2022-11-11T02:50:53;4.97;;;2.70;;
15958;SDS011;8078;47.822;9.402;2022-11-11T02:53:20;3.47;;;2.87;;
15958;SDS011;8078;47.822;9.402;2022-11-11T02:55:46;3.20;;;2.90;;
15958;SDS011;8078;47.822;9.402;2022-11-11T02:58:12;6.87;;;3.03;;
15958;SDS011;8078;47.822;9.402;2022-11-11T03:00:39;4.40;;;3.50;;
15958;SDS011;8078;47.822;9.402;2022-11-11T03:03:06;5.33;;;3.67;;
15958;SDS011;8078;47.822;9.402;2022-11-11T03:05:33;4.60;;;3.80;;
15958;SDS011;8078;47.822;9.402;2022-11-11T03:07:58;5.60;;;3.37;;
15958;SDS011;8078;47.822;9.402;2022-11-11T03:10:24;6.87;;;3.93;;
15958;SDS011;8078;47.822;9.402;2022-11-11T03:12:49;5.27;;;3.37;;
15958;SDS011;8078;47.822;9.402;2022-11-11T03:15:15;3.80;;;3.00;;
15958;SDS011;8078;47.822;9.402;2022-11-11T03:17:41;10.00;;;3.50;;
15958;SDS011;8078;47.822;9.402;2022-11-11T03:20:13;4.30;;;3.10;;
15958;SDS011;8078;47.822;9.402;2022-11-11T03:23:02;4.20;;;2.73;;
15958;SDS011;8078;47.822;9.402;2022-11-11T03:25:39;5.00;;;3.00;;
15958;SDS011;8078;47.822;9.402;2022-11-11T03:30:37;2.53;;;2.20;;
15958;SDS011;8078;47.822;9.402;2022-11-11T03:33:07;3.63;;;2.50;;
15958;SDS011;8078;47.822;9.402;2022-11-11T03:35:32;5.60;;;3.43;;
15958;SDS011;8078;47.822;9.402;2022-11-11T03:37:58;3.43;;;2.63;;
15958;SDS011;8078;47.822;9.402;2022-11-11T03:40:46;5.70;;;3.53;;
15958;SDS011;8078;47.822;9.402;2022-11-11T03:43:12;7.00;;;4.03;;
15958;SDS011;8078;47.822;9.402;2022-11-11T03:45:39;3.43;;;2.80;;
15958;SDS011;8078;47.822;9.402;2022-11-11T03:48:06;6.80;;;3.50;;
15958;SDS011;8078;47.822;9.402;2022-11-11T03:50:32;3.47;;;3.17;;
15958;SDS011;8078;47.822;9.402;2022-11-11T03:52:57;4.67;;;3.40;;
15958;SDS011;8078;47.822;9.402;2022-11-11T03:55:23;4.00;;;3.50;;
15958;SDS011;8078;47.822;9.402;2022-11-11T03:57:49;5.03;;;3.60;;
15958;SDS011;8078;47.822;9.402;2022-11-11T04:00:16;4.97;;;3.83;;
15958;SDS011;8078;47.822;9.402;2022-11-11T04:02:44;6.77;;;4.37;;
15958;SDS011;8078;47.822;9.402;2022-11-11T04:05:28;4.43;;;3.90;;
15958;SDS011;8078;47.822;9.402;2022-11-11T04:08:14;5.37;;;3.83;;
15958;SDS011;8078;47.822;9.402;2022-11-11T04:11:02;8.77;;;3.93;;
15958;SDS011;8078;47.822;9.402;2022-11-11T04:13:38;7.57;;;4.97;;
15958;SDS011;8078;47.822;9.402;2022-11-11T04:16:24;5.47;;;4.23;;
15958;SDS011;8078;47.822;9.402;2022-11-11T04:18:50;6.63;;;4.60;;
15958;SDS011;8078;47.822;9.402;2022-11-11T04:21:34;5.87;;;4.17;;
15958;SDS011;8078;47.822;9.402;2022-11-11T04:26:58;9.80;;;5.80;;
15958;SDS011;8078;47.822;9.402;2022-11-11T04:29:25;8.90;;;6.23;;
15958;SDS011;8078;47.822;9.402;2022-11-11T04:34:39;18.93;;;9.77;;
15958;SDS011;8078;47.822;9.402;2022-11-11T04:37:05;23.60;;;12.43;;
15958;SDS011;8078;47.822;9.402;2022-11-11T04:39:30;34.77;;;11.50;;
15958;SDS011;8078;47.822;9.402;2022-11-11T04:42:15;561.13;;;39.90;;
15958;SDS011;8078;47.822;9.402;2022-11-11T04:44:40;610.37;;;46.47;;
15958;SDS011;8078;47.822;9.402;2022-11-11T04:47:25;445.60;;;28.27;;
15958;SDS011;8078;47.822;9.402;2022-11-11T04:49:50;423.93;;;29.10;;
15958;SDS011;8078;47.822;9.402;2022-11-11T04:52:16;604.57;;;43.37;;
15958;SDS011;8078;47.822;9.402;2022-11-11T04:54:51;557.63;;;38.40;;
15958;SDS011;8078;47.822;9.402;2022-11-11T04:57:41;677.90;;;44.03;;
15958;SDS011;8078;47.822;9.402;2022-11-11T05:00:13;570.73;;;36.67;;
15958;SDS011;8078;47.822;9.402;2022-11-11T05:02:43;616.07;;;43.23;;
15958;SDS011;8078;47.822;9.402;2022-11-11T05:05:28;764.50;;;51.47;;
15958;SDS011;8078;47.822;9.402;2022-11-11T05:08:14;559.47;;;37.30;;
15958;SDS011;8078;47.822;9.402;2022-11-11T05:10:58;757.70;;;53.70;;
15958;SDS011;8078;47.822;9.402;2022-11-11T05:13:24;712.97;;;54.03;;
15958;SDS011;8078;47.822;9.402;2022-11-11T05:16:15;632.13;;;45.70;;
15958;SDS011;8078;47.822;9.402;2022-11-11T05:19:02;664.70;;;52.13;;
15958;SDS011;8078;47.822;9.402;2022-11-11T05:21:47;558.70;;;41.33;;
15958;SDS011;8078;47.822;9.402;2022-11-11T05:24:17;547.27;;;38.97;;
15958;SDS011;8078;47.822;9.402;2022-11-11T05:27:01;507.33;;;41.70;;
15958;SDS011;8078;47.822;9.402;2022-11-11T05:29:26;678.57;;;53.37;;
15958;SDS011;8078;47.822;9.402;2022-11-11T05:31:52;579.37;;;43.57;;
15958;SDS011;8078;47.822;9.402;2022-11-11T05:34:17;543.83;;;40.20;;
15958;SDS011;8078;47.822;9.402;2022-11-11T05:36:43;687.03;;;50.47;;
15958;SDS011;8078;47.822;9.402;2022-11-11T05:39:08;481.73;;;39.17;;
15958;SDS011;8078;47.822;9.402;2022-11-11T05:41:34;437.17;;;37.17;;
15958;SDS011;8078;47.822;9.402;2022-11-11T05:43:59;349.63;;;34.73;;
15958;SDS011;8078;47.822;9.402;2022-11-11T05:46:25;354.60;;;36.27;;
15958;SDS011;8078;47.822;9.402;2022-11-11T05:48:51;353.60;;;36.07;;
15958;SDS011;8078;47.822;9.402;2022-11-11T05:51:35;394.83;;;35.40;;
15958;SDS011;8078;47.822;9.402;2022-11-11T05:54:00;397.53;;;39.60;;
15958;SDS011;8078;47.822;9.402;2022-11-11T05:56:26;477.23;;;45.40;;
15958;SDS011;8078;47.822;9.402;2022-11-11T05:58:51;472.67;;;41.87;;
15958;SDS011;8078;47.822;9.402;2022-11-11T06:01:17;496.53;;;47.97;;
15958;SDS011;8078;47.822;9.402;2022-11-11T06:03:43;443.13;;;40.47;;
15958;SDS011;8078;47.822;9.402;2022-11-11T06:06:08;450.20;;;42.93;;
15958;SDS011;8078;47.822;9.402;2022-11-11T06:08:34;341.03;;;35.63;;
15958;SDS011;8078;47.822;9.402;2022-11-11T06:11:00;367.63;;;35.70;;
15958;SDS011;8078;47.822;9.402;2022-11-11T06:13:25;373.93;;;36.80;;
15958;SDS011;8078;47.822;9.402;2022-11-11T06:15:51;392.23;;;34.43;;
15958;SDS011;8078;47.822;9.402;2022-11-11T06:18:16;406.80;;;34.57;;
15958;SDS011;8078;47.822;9.402;2022-11-11T06:20:42;396.73;;;33.63;;
15958;SDS011;8078;47.822;9.402;2022-11-11T06:23:07;361.53;;;34.77;;
15958;SDS011;8078;47.822;9.402;2022-11-11T06:25:33;326.80;;;32.43;;
15958;SDS011;8078;47.822;9.402;2022-11-11T06:28:17;365.10;;;32.40;;
15958;SDS011;8078;47.822;9.402;2022-11-11T06:30:43;364.17;;;33.17;;
15958;SDS011;8078;47.822;9.402;2022-11-11T06:33:10;357.63;;;33.30;;
15958;SDS011;8078;47.822;9.402;2022-11-11T06:35:36;365.50;;;32.97;;
15958;SDS011;8078;47.822;9.402;2022-11-11T06:38:03;420.43;;;44.50;;
15958;SDS011;8078;47.822;9.402;2022-11-11T06:40:30;329.87;;;33.67;;
15958;SDS011;8078;47.822;9.402;2022-11-11T06:42:56;456.03;;;38.03;;
15958;SDS011;8078;47.822;9.402;2022-11-11T06:45:26;642.03;;;56.13;;
15958;SDS011;8078;47.822;9.402;2022-11-11T06:47:53;516.50;;;36.47;;
15958;SDS011;8078;47.822;9.402;2022-11-11T06:50:19;359.80;;;29.47;;
15958;SDS011;8078;47.822;9.402;2022-11-11T06:52:45;631.03;;;49.30;;
15958;SDS011;8078;47.822;9.402;2022-11-11T06:55:11;482.83;;;39.50;;
15958;SDS011;8078;47.822;9.402;2022-11-11T06:57:37;454.17;;;43.17;;
15958;SDS011;8078;47.822;9.402;2022-11-11T07:00:03;402.60;;;30.60;;
15958;SDS011;8078;47.822;9.402;2022-11-11T07:02:30;469.93;;;32.27;;
15958;SDS011;8078;47.822;9.402;2022-11-11T07:04:56;514.50;;;41.53;;
15958;SDS011;8078;47.822;9.402;2022-11-11T07:07:22;481.37;;;39.67;;
15958;SDS011;8078;47.822;9.402;2022-11-11T07:09:47;560.63;;;40.43;;
15958;SDS011;8078;47.822;9.402;2022-11-11T07:12:13;529.60;;;39.27;;
15958;SDS011;8078;47.822;9.402;2022-11-11T07:14:39;563.00;;;40.70;;
15958;SDS011;8078;47.822;9.402;2022-11-11T07:17:04;559.77;;;45.47;;
15958;SDS011;8078;47.822;9.402;2022-11-11T07:19:30;579.93;;;43.67;;
15958;SDS011;8078;47.822;9.402;2022-11-11T07:21:55;615.13;;;46.17;;
15958;SDS011;8078;47.822;9.402;2022-11-11T07:24:21;531.93;;;39.47;;
15958;SDS011;8078;47.822;9.402;2022-11-11T07:26:46;477.93;;;33.53;;
15958;SDS011;8078;47.822;9.402;2022-11-11T07:29:12;572.83;;;50.60;;
15958;SDS011;8078;47.822;9.402;2022-11-11T07:31:39;631.63;;;50.17;;
15958;SDS011;8078;47.822;9.402;2022-11-11T07:34:05;593.80;;;44.73;;
15958;SDS011;8078;47.822;9.402;2022-11-11T07:36:31;670.17;;;48.97;;
15958;SDS011;8078;47.822;9.402;2022-11-11T07:38:56;557.13;;;38.77;;
15958;SDS011;8078;47.822;9.402;2022-11-11T07:41:22;647.17;;;49.83;;
15958;SDS011;8078;47.822;9.402;2022-11-11T07:43:48;604.67;;;44.00;;
15958;SDS011;8078;47.822;9.402;2022-11-11T07:46:13;601.10;;;41.67;;
15958;SDS011;8078;47.822;9.402;2022-11-11T07:48:39;609.47;;;40.50;;
15958;SDS011;8078;47.822;9.402;2022-11-11T07:51:04;608.37;;;45.87;;
15958;SDS011;8078;47.822;9.402;2022-11-11T07:53:30;536.77;;;35.33;;
15958;SDS011;8078;47.822;9.402;2022-11-11T07:55:56;594.43;;;38.77;;
15958;SDS011;8078;47.822;9.402;2022-11-11T07:58:21;620.70;;;41.50;;
15958;SDS011;8078;47.822;9.402;2022-11-11T08:00:47;743.57;;;51.57;;
15958;SDS011;8078;47.822;9.402;2022-11-11T08:03:12;712.03;;;48.23;;
15958;SDS011;8078;47.822;9.402;2022-11-11T08:05:38;609.67;;;38.63;;
15958;SDS011;8078;47.822;9.402;2022-11-11T08:08:07;633.63;;;42.93;;
15958;SDS011;8078;47.822;9.402;2022-11-11T08:10:34;583.57;;;45.87;;
15958;SDS011;8078;47.822;9.402;2022-11-11T08:13:00;518.30;;;36.47;;
15958;SDS011;8078;47.822;9.402;2022-11-11T08:15:44;569.03;;;40.00;;
15958;SDS011;8078;47.822;9.402;2022-11-11T08:18:10;564.93;;;35.97;;
15958;SDS011;8078;47.822;9.402;2022-11-11T08:20:35;550.10;;;36.70;;
15958;SDS011;8078;47.822;9.402;2022-11-11T08:23:01;668.77;;;46.37;;
15958;SDS011;8078;47.822;9.402;2022-11-11T08:25:29;706.57;;;48.87;;
15958;SDS011;8078;47.822;9.402;2022-11-11T08:27:59;533.37;;;41.23;;
15958;SDS011;8078;47.822;9.402;2022-11-11T08:30:26;568.43;;;39.80;;
15958;SDS011;8078;47.822;9.402;2022-11-11T08:32:58;735.20;;;49.60;;
15958;SDS011;8078;47.822;9.402;2022-11-11T08:35:25;560.03;;;40.67;;
15958;SDS011;8078;47.822;9.402;2022-11-11T08:37:51;636.37;;;42.90;;
15958;SDS011;8078;47.822;9.402;2022-11-11T08:40:17;713.20;;;51.53;;
15958;SDS011;8078;47.822;9.402;2022-11-11T08:42:43;613.90;;;39.73;;
15958;SDS011;8078;47.822;9.402;2022-11-11T08:45:09;634.27;;;45.47;;
15958;SDS011;8078;47.822;9.402;2022-11-11T08:47:35;630.77;;;44.47;;
15958;SDS011;8078;47.822;9.402;2022-11-11T08:50:01;600.27;;;44.00;;
15958;SDS011;8078;47.822;9.402;2022-11-11T08:52:27;678.53;;;48.67;;
15958;SDS011;8078;47.822;9.402;2022-11-11T08:54:52;680.60;;;53.27;;
15958;SDS011;8078;47.822;9.402;2022-11-11T08:57:18;682.23;;;51.20;;
15958;SDS011;8078;47.822;9.402;2022-11-11T08:59:44;554.33;;;36.10;;
15958;SDS011;8078;47.822;9.402;2022-11-11T09:02:13;584.70;;;41.50;;
15958;SDS011;8078;47.822;9.402;2022-11-11T09:04:39;727.80;;;52.37;;
15958;SDS011;8078;47.822;9.402;2022-11-11T09:07:09;670.67;;;47.33;;
15958;SDS011;8078;47.822;9.402;2022-11-11T09:09:35;607.23;;;49.10;;
15958;SDS011;8078;47.822;9.402;2022-11-11T09:12:01;665.23;;;50.63;;
15958;SDS011;8078;47.822;9.402;2022-11-11T09:14:27;893.90;;;58.73;;
15958;SDS011;8078;47.822;9.402;2022-11-11T09:16:52;904.63;;;55.30;;
15958;SDS011;8078;47.822;9.402;2022-11-11T09:19:18;759.93;;;53.03;;
15958;SDS011;8078;47.822;9.402;2022-11-11T09:21:43;855.03;;;62.83;;
15958;SDS011;8078;47.822;9.402;2022-11-11T09:24:09;686.43;;;46.87;;
15958;SDS011;8078;47.822;9.402;2022-11-11T09:26:34;741.67;;;59.10;;
15958;SDS011;8078;47.822;9.402;2022-11-11T09:29:00;900.57;;;61.83;;
15958;SDS011;8078;47.822;9.402;2022-11-11T09:31:26;675.87;;;47.27;;
15958;SDS011;8078;47.822;9.402;2022-11-11T09:33:51;732.13;;;52.77;;
15958;SDS011;8078;47.822;9.402;2022-11-11T09:36:17;885.93;;;58.73;;
15958;SDS011;8078;47.822;9.402;2022-11-11T09:38:43;836.13;;;64.93;;
15958;SDS011;8078;47.822;9.402;2022-11-11T09:44:00;822.20;;;60.00;;
15958;SDS011;8078;47.822;9.402;2022-11-11T09:46:32;931.10;;;60.90;;
15958;SDS011;8078;47.822;9.402;2022-11-11T09:52:11;777.97;;;51.73;;
15958;SDS011;8078;47.822;9.402;2022-11-11T09:57:14;905.07;;;61.70;;
15958;SDS011;8078;47.822;9.402;2022-11-11T09:59:53;933.67;;;67.90;;
15958;SDS011;8078;47.822;9.402;2022-11-11T10:02:33;1212.77;;;82.23;;
15958;SDS011;8078;47.822;9.402;2022-11-11T10:07:39;1155.43;;;82.73;;
15958;SDS011;8078;47.822;9.402;2022-11-11T10:10:14;1152.73;;;75.43;;
15958;SDS011;8078;47.822;9.402;2022-11-11T10:12:43;1286.53;;;99.50;;
15958;SDS011;8078;47.822;9.402;2022-11-11T10:15:19;992.10;;;72.97;;
15958;SDS011;8078;47.822;9.402;2022-11-11T10:17:52;1058.53;;;75.33;;
15958;SDS011;8078;47.822;9.402;2022-11-11T10:20:56;935.53;;;70.87;;
15958;SDS011;8078;47.822;9.402;2022-11-11T10:23:28;1001.97;;;71.90;;
15958;SDS011;8078;47.822;9.402;2022-11-11T10:26:04;958.03;;;73.13;;
15958;SDS011;8078;47.822;9.402;2022-11-11T10:28:36;768.47;;;53.80;;
15958;SDS011;8078;47.822;9.402;2022-11-11T10:31:02;954.33;;;65.10;;
15958;SDS011;8078;47.822;9.402;2022-11-11T10:33:38;829.70;;;56.07;;
15958;SDS011;8078;47.822;9.402;2022-11-11T10:36:05;1015.37;;;74.57;;
15958;SDS011;8078;47.822;9.402;2022-11-11T10:41:29;903.40;;;64.50;;
15958;SDS011;8078;47.822;9.402;2022-11-11T10:43:56;868.57;;;61.37;;
15958;SDS011;8078;47.822;9.402;2022-11-11T10:46:26;958.27;;;65.33;;
15958;SDS011;8078;47.822;9.402;2022-11-11T10:49:00;848.53;;;55.80;;
15958;SDS011;8078;47.822;9.402;2022-11-11T10:51:34;712.83;;;40.87;;
15958;SDS011;8078;47.822;9.402;2022-11-11T10:54:14;812.00;;;54.77;;
15958;SDS011;8078;47.822;9.402;2022-11-11T10:57:08;760.53;;;51.00;;
15958;SDS011;8078;47.822;9.402;2022-11-11T11:02:15;759.50;;;51.67;;
15958;SDS011;8078;47.822;9.402;2022-11-11T11:04:52;888.43;;;59.27;;
15958;SDS011;8078;47.822;9.402;2022-11-11T11:07:29;839.20;;;56.70;;
15958;SDS011;8078;47.822;9.402;2022-11-11T11:10:13;795.23;;;58.33;;
15958;SDS011;8078;47.822;9.402;2022-11-11T11:12:54;814.43;;;51.53;;
15958;SDS011;8078;47.822;9.402;2022-11-11T11:15:43;803.90;;;60.07;;
15958;SDS011;8078;47.822;9.402;2022-11-11T11:18:14;1026.97;;;78.90;;
15958;SDS011;8078;47.822;9.402;2022-11-11T11:20:59;879.50;;;59.13;;
15958;SDS011;8078;47.822;9.402;2022-11-11T11:23:40;863.90;;;58.67;;
15958;SDS011;8078;47.822;9.402;2022-11-11T11:26:12;1120.33;;;72.47;;
15958;SDS011;8078;47.822;9.402;2022-11-11T11:28:51;1047.47;;;72.93;;
15958;SDS011;8078;47.822;9.402;2022-11-11T11:31:43;1118.53;;;79.13;;
15958;SDS011;8078;47.822;9.402;2022-11-11T11:34:11;1384.67;;;82.20;;
15958;SDS011;8078;47.822;9.402;2022-11-11T11:36:37;1414.07;;;84.13;;
15958;SDS011;8078;47.822;9.402;2022-11-11T11:39:02;673.10;;;50.93;;
15958;SDS011;8078;47.822;9.402;2022-11-11T11:41:46;620.60;;;41.83;;
15958;SDS011;8078;47.822;9.402;2022-11-11T11:44:30;598.57;;;44.37;;
15958;SDS011;8078;47.822;9.402;2022-11-11T11:55:23;588.80;;;35.07;;
15958;SDS011;8078;47.822;9.402;2022-11-11T12:00:19;648.30;;;43.73;;
15958;SDS011;8078;47.822;9.402;2022-11-11T12:11:08;363.63;;;30.47;;
15958;SDS011;8078;47.822;9.402;2022-11-11T12:13:47;378.00;;;32.00;;
15958;SDS011;8078;47.822;9.402;2022-11-11T12:27:51;224.33;;;26.17;;
15958;SDS011;8078;47.822;9.402;2022-11-11T12:30:26;51.83;;;18.70;;
15958;SDS011;8078;47.822;9.402;2022-11-11T12:33:01;265.50;;;23.47;;
15958;SDS011;8078;47.822;9.402;2022-11-11T12:41:26;51.00;;;14.50;;
15958;SDS011;8078;47.822;9.402;2022-11-11T12:44:11;31.33;;;13.83;;
15958;SDS011;8078;47.822;9.402;2022-11-11T12:46:53;37.10;;;15.77;;
15958;SDS011;8078;47.822;9.402;2022-11-11T12:52:23;29.13;;;15.00;;
15958;SDS011;8078;47.822;9.402;2022-11-11T12:57:50;24.50;;;13.30;;
15958;SDS011;8078;47.822;9.402;2022-11-11T13:00:33;24.25;;;13.52;;
15958;SDS011;8078;47.822;9.402;2022-11-11T13:03:16;25.93;;;12.90;;
15958;SDS011;8078;47.822;9.402;2022-11-11T13:08:52;17.20;;;10.65;;
15958;SDS011;8078;47.822;9.402;2022-11-11T13:14:30;20.67;;;12.30;;
15958;SDS011;8078;47.822;9.402;2022-11-11T13:17:04;18.20;;;11.20;;
15958;SDS011;8078;47.822;9.402;2022-11-11T13:19:37;18.55;;;10.88;;
15958;SDS011;8078;47.822;9.402;2022-11-11T13:24:46;15.80;;;10.90;;
15958;SDS011;8078;47.822;9.402;2022-11-11T13:27:14;16.33;;;10.68;;
15958;SDS011;8078;47.822;9.402;2022-11-11T13:32:41;13.57;;;9.32;;
15958;SDS011;8078;47.822;9.402;2022-11-11T13:35:25;17.67;;;11.23;;
15958;SDS011;8078;47.822;9.402;2022-11-11T13:38:04;19.00;;;11.32;;
15958;SDS011;8078;47.822;9.402;2022-11-11T13:43:03;21.20;;;11.68;;
15958;SDS011;8078;47.822;9.402;2022-11-11T13:45:37;16.75;;;10.85;;
15958;SDS011;8078;47.822;9.402;2022-11-11T13:48:05;15.95;;;9.88;;
15958;SDS011;8078;47.822;9.402;2022-11-11T13:50:40;17.77;;;10.70;;
15958;SDS011;8078;47.822;9.402;2022-11-11T13:53:12;20.65;;;11.98;;
15958;SDS011;8078;47.822;9.402;2022-11-11T13:56:00;26.17;;;11.82;;
15958;SDS011;8078;47.822;9.402;2022-11-11T13:58:37;73.85;;;12.68;;
15958;SDS011;8078;47.822;9.402;2022-11-11T14:01:09;31.43;;;12.10;;
15958;SDS011;8078;47.822;9.402;2022-11-11T14:03:36;23.37;;;12.43;;
15958;SDS011;8078;47.822;9.402;2022-11-11T14:06:28;25.57;;;12.53;;
15958;SDS011;8078;47.822;9.402;2022-11-11T14:09:02;18.10;;;10.83;;
15958;SDS011;8078;47.822;9.402;2022-11-11T14:11:29;21.17;;;12.38;;
15958;SDS011;8078;47.822;9.402;2022-11-11T14:13:58;17.30;;;10.40;;
15958;SDS011;8078;47.822;9.402;2022-11-11T14:17:03;19.38;;;11.60;;
15958;SDS011;8078;47.822;9.402;2022-11-11T14:19:30;17.45;;;11.02;;
15958;SDS011;8078;47.822;9.402;2022-11-11T14:24:37;17.67;;;11.52;;
15958;SDS011;8078;47.822;9.402;2022-11-11T14:29:33;17.80;;;10.48;;
15958;SDS011;8078;47.822;9.402;2022-11-11T14:34:44;41.17;;;12.93;;
15958;SDS011;8078;47.822;9.402;2022-11-11T14:37:24;190.00;;;16.77;;
15958;SDS011;8078;47.822;9.402;2022-11-11T14:39:56;90.57;;;14.53;;
15958;SDS011;8078;47.822;9.402;2022-11-11T14:44:59;18.80;;;12.17;;
15958;SDS011;8078;47.822;9.402;2022-11-11T14:50:01;93.23;;;14.60;;
15958;SDS011;8078;47.822;9.402;2022-11-11T14:52:48;63.80;;;14.73;;
15958;SDS011;8078;47.822;9.402;2022-11-11T14:58:00;464.00;;;27.97;;
15958;SDS011;8078;47.822;9.402;2022-11-11T15:03:32;87.87;;;14.87;;
15958;SDS011;8078;47.822;9.402;2022-11-11T15:06:17;513.17;;;31.57;;
15958;SDS011;8078;47.822;9.402;2022-11-11T15:21:06;657.47;;;43.00;;
15958;SDS011;8078;47.822;9.402;2022-11-11T15:23:56;765.00;;;47.70;;
15958;SDS011;8078;47.822;9.402;2022-11-11T15:37:34;26.90;;;11.30;;
15958;SDS011;8078;47.822;9.402;2022-11-11T15:40:00;805.60;;;40.40;;
15958;SDS011;8078;47.822;9.402;2022-11-11T15:42:31;569.33;;;33.60;;
15958;SDS011;8078;47.822;9.402;2022-11-11T15:45:02;549.17;;;35.13;;
15958;SDS011;8078;47.822;9.402;2022-11-11T15:47:44;546.43;;;37.20;;
15958;SDS011;8078;47.822;9.402;2022-11-11T15:52:58;759.17;;;46.83;;
15958;SDS011;8078;47.822;9.402;2022-11-11T15:57:51;922.60;;;46.00;;
15958;SDS011;8078;47.822;9.402;2022-11-11T16:02:48;146.63;;;16.10;;
15958;SDS011;8078;47.822;9.402;2022-11-11T16:05:22;238.40;;;19.90;;
15958;SDS011;8078;47.822;9.402;2022-11-11T16:07:49;359.27;;;19.13;;
15958;SDS011;8078;47.822;9.402;2022-11-11T16:10:24;32.00;;;9.33;;
15958;SDS011;8078;47.822;9.402;2022-11-11T16:12:54;256.53;;;15.83;;
15958;SDS011;8078;47.822;9.402;2022-11-11T16:15:46;214.57;;;15.07;;
15958;SDS011;8078;47.822;9.402;2022-11-11T16:18:37;150.53;;;13.70;;
15958;SDS011;8078;47.822;9.402;2022-11-11T16:21:09;197.63;;;13.57;;
15958;SDS011;8078;47.822;9.402;2022-11-11T16:23:36;323.70;;;18.43;;
15958;SDS011;8078;47.822;9.402;2022-11-11T16:26:03;224.17;;;15.27;;
15958;SDS011;8078;47.822;9.402;2022-11-11T16:28:32;230.03;;;14.97;;
15958;SDS011;8078;47.822;9.402;2022-11-11T16:34:23;94.10;;;11.27;;
15958;SDS011;8078;47.822;9.402;2022-11-11T16:37:07;33.20;;;9.60;;
15958;SDS011;8078;47.822;9.402;2022-11-11T16:39:35;129.63;;;11.53;;
15958;SDS011;8078;47.822;9.402;2022-11-11T16:42:02;124.07;;;10.73;;
15958;SDS011;8078;47.822;9.402;2022-11-11T16:50:05;121.60;;;10.70;;
15958;SDS011;8078;47.822;9.402;2022-11-11T16:55:20;203.40;;;13.07;;
15958;SDS011;8078;47.822;9.402;2022-11-11T16:58:02;213.47;;;15.90;;
15958;SDS011;8078;47.822;9.402;2022-11-11T17:00:43;275.03;;;17.47;;
15958;SDS011;8078;47.822;9.402;2022-11-11T17:03:13;291.33;;;17.57;;
15958;SDS011;8078;47.822;9.402;2022-11-11T17:11:01;400.23;;;21.40;;
15958;SDS011;8078;47.822;9.402;2022-11-11T17:13:34;435.80;;;23.93;;
15958;SDS011;8078;47.822;9.402;2022-11-11T17:16:04;322.10;;;19.20;;
15958;SDS011;8078;47.822;9.402;2022-11-11T17:18:32;442.63;;;27.63;;
15958;SDS011;8078;47.822;9.402;2022-11-11T17:20:59;493.47;;;25.00;;
15958;SDS011;8078;47.822;9.402;2022-11-11T17:23:26;387.53;;;20.67;;
15958;SDS011;8078;47.822;9.402;2022-11-11T17:25:54;474.20;;;22.67;;
15958;SDS011;8078;47.822;9.402;2022-11-11T17:28:29;380.73;;;18.33;;
15958;SDS011;8078;47.822;9.402;2022-11-11T17:30:56;409.57;;;20.63;;
15958;SDS011;8078;47.822;9.402;2022-11-11T17:33:25;233.97;;;15.37;;